Time;durP1;ratioP1;P1;durP2;ratioP2;P2;SDS_P1;SDS_P2;PMS_P1;PMS_P2;Temp;Humidity;BMP_temperature;BMP_pressure;BME280_temperature;BME280_humidity;BME280_pressure;Samples;Min_cycle;Max_cycle;Signal;HPM_P1;HPM_P2
2022/04/26 03:37:06;;;;;;;8.45;4.72;;;7.80;99.90;;;;;;5094777;28;20044;-71
2022/04/26 03:39:35;;;;;;;10.48;4.38;;;7.40;99.90;;;;;;5028093;28;20052;-71
2022/04/26 03:42:04;;;;;;;9.13;4.70;;;7.70;99.90;;;;;;5076011;28;20153;-71
2022/04/26 03:44:30;;;;;;;8.27;4.55;;;7.40;99.90;;;;;;5093318;28;20087;-70
2022/04/26 03:46:57;;;;;;;13.70;4.43;;;7.60;99.90;;;;;;5093988;28;20048;-71
2022/04/26 03:49:23;;;;;;;12.95;4.38;;;7.90;99.90;;;;;;5076528;28;20048;-71
2022/04/26 03:51:52;;;;;;;11.05;4.32;;;7.50;99.90;;;;;;5075933;28;20112;-70
2022/04/26 03:54:21;;;;;;;10.85;4.10;;;7.40;99.90;;;;;;5076507;28;20071;-71
2022/04/26 03:56:47;;;;;;;9.48;4.55;;;7.40;99.90;;;;;;5075812;28;20087;-71
2022/04/26 03:59:13;;;;;;;7.63;4.18;;;7.40;99.90;;;;;;5093841;28;20044;-71
2022/04/26 04:01:39;;;;;;;10.68;4.95;;;7.50;99.90;;;;;;5075983;28;20109;-71
2022/04/26 04:04:05;;;;;;;8.75;4.95;;;7.70;99.90;;;;;;5093798;28;20052;-71
2022/04/26 04:06:31;;;;;;;9.48;4.80;;;7.40;99.90;;;;;;5076119;28;20101;-71
2022/04/26 04:08:57;;;;;;;9.60;4.65;;;8.20;99.90;;;;;;5075697;28;20131;-71
2022/04/26 04:11:23;;;;;;;15.77;5.57;;;7.40;99.90;;;;;;5093686;28;20094;-71
2022/04/26 04:13:49;;;;;;;11.00;4.82;;;7.40;99.90;;;;;;5093753;28;20072;-71
2022/04/26 04:16:15;;;;;;;10.45;4.28;;;7.50;99.90;;;;;;5058678;28;20094;-70
2022/04/26 04:21:24;;;;;;;10.38;4.65;;;7.40;99.90;;;;;;5061978;28;20083;-70
2022/04/26 04:23:50;;;;;;;12.48;4.85;;;8.00;99.90;;;;;;5058954;28;20091;-70
2022/04/26 04:26:16;;;;;;;10.50;4.65;;;7.70;99.90;;;;;;5093506;28;20100;-71
2022/04/26 04:28:42;;;;;;;8.85;3.40;;;8.00;99.90;;;;;;5094337;28;20040;-70
2022/04/26 04:31:09;;;;;;;6.78;3.85;;;7.50;99.90;;;;;;5059410;28;20461;-70
2022/04/26 04:33:36;;;;;;;10.40;3.97;;;7.40;99.90;;;;;;5071841;28;20061;-70
2022/04/26 04:36:02;;;;;;;6.13;3.70;;;7.70;99.90;;;;;;5072666;28;20132;-70
2022/04/26 04:38:28;;;;;;;5.90;3.30;;;7.50;99.90;;;;;;5071902;28;20048;-70
2022/04/26 04:40:53;;;;;;;9.27;3.50;;;7.60;99.90;;;;;;5073179;28;20109;-70
2022/04/26 04:43:20;;;;;;;5.68;3.30;;;7.60;99.90;;;;;;5072907;28;20045;-71
2022/04/26 04:45:47;;;;;;;9.70;3.28;;;7.60;99.90;;;;;;5055254;28;20048;-70
2022/04/26 04:48:13;;;;;;;7.53;3.50;;;7.60;99.90;;;;;;5071905;28;20070;-71
2022/04/26 04:50:39;;;;;;;7.80;3.40;;;7.60;99.90;;;;;;5071876;28;20523;-71
2022/04/26 04:53:05;;;;;;;8.35;3.28;;;7.60;99.90;;;;;;5072100;28;20044;-71
2022/04/26 04:55:31;;;;;;;10.23;3.78;;;7.70;99.90;;;;;;5057259;28;20043;-71
2022/04/26 04:57:57;;;;;;;11.55;3.22;;;7.60;99.90;;;;;;5076891;28;20052;-71
2022/04/26 05:00:23;;;;;;;9.27;3.55;;;8.40;99.90;;;;;;5077337;28;20044;-71
2022/04/26 05:02:48;;;;;;;4.82;3.15;;;7.50;99.90;;;;;;5076766;28;20511;-71
2022/04/26 05:05:14;;;;;;;8.18;3.30;;;7.60;99.90;;;;;;5075453;28;20063;-70
2022/04/26 05:07:40;;;;;;;11.80;3.45;;;7.80;99.90;;;;;;5076739;28;20041;-71
2022/04/26 05:10:06;;;;;;;10.70;3.35;;;7.60;99.90;;;;;;5076605;28;20041;-70
2022/04/26 05:12:33;;;;;;;9.52;3.30;;;7.50;99.90;;;;;;5076515;28;20048;-71
2022/04/26 05:14:59;;;;;;;14.00;4.25;;;8.40;99.90;;;;;;5075549;28;20052;-71
2022/04/26 05:17:28;;;;;;;7.85;3.20;;;7.50;99.90;;;;;;5076687;28;20056;-71
2022/04/26 05:19:55;;;;;;;7.93;3.63;;;8.00;99.90;;;;;;5076082;28;20515;-71
2022/04/26 05:22:21;;;;;;;5.70;2.80;;;7.50;99.90;;;;;;5075434;28;20044;-71
2022/04/26 05:24:54;;;;;;;11.82;3.25;;;7.60;99.90;;;;;;5058511;28;20047;-71
2022/04/26 05:27:23;;;;;;;6.72;3.38;;;7.60;99.90;;;;;;5077087;28;20036;-71
2022/04/26 05:29:49;;;;;;;7.40;3.50;;;7.70;99.90;;;;;;5076284;28;20054;-71
2022/04/26 05:32:23;;;;;;;8.32;3.20;;;8.20;99.90;;;;;;5076193;28;20141;-71
2022/04/26 05:34:54;;;;;;;;;;;7.60;99.90;;;;;;5095392;28;20110;-71
2022/04/26 05:37:20;;;;;;;6.32;3.10;;;7.90;99.90;;;;;;5061733;28;19927;-71
2022/04/26 05:39:45;;;;;;;8.05;3.75;;;8.20;99.90;;;;;;5078290;28;20040;-71
2022/04/26 05:42:11;;;;;;;7.53;3.58;;;7.60;99.90;;;;;;5096272;28;20087;-71
2022/04/26 05:44:38;;;;;;;6.72;3.30;;;7.90;99.90;;;;;;5061762;28;20051;-71
2022/04/26 05:47:07;;;;;;;8.18;3.50;;;8.20;99.90;;;;;;5096194;28;20052;-71
2022/04/26 05:49:33;;;;;;;8.82;3.20;;;7.80;99.90;;;;;;5096179;28;20048;-71
2022/04/26 05:51:58;;;;;;;11.80;3.88;;;8.00;99.90;;;;;;5078497;28;20071;-71
2022/04/26 05:54:24;;;;;;;9.88;3.55;;;7.90;99.90;;;;;;5096014;28;20086;-72
2022/04/26 05:56:52;;;;;;;8.00;3.72;;;7.90;99.90;;;;;;5077993;28;20399;-71
2022/04/26 05:59:18;;;;;;;10.82;4.65;;;8.00;99.90;;;;;;5078553;28;20109;-72
2022/04/26 06:01:44;;;;;;;9.43;4.18;;;8.00;99.90;;;;;;5077783;28;20048;-72
2022/04/26 06:04:10;;;;;;;8.35;4.20;;;8.00;99.90;;;;;;5096690;28;20044;-69
2022/04/26 06:06:36;;;;;;;10.20;3.90;;;8.10;99.90;;;;;;5095405;28;20380;-71
2022/04/26 06:09:05;;;;;;;8.65;3.15;;;8.10;99.90;;;;;;5096262;28;20047;-72
2022/04/26 06:11:31;;;;;;;5.90;2.78;;;8.20;99.90;;;;;;5095673;28;20043;-71
2022/04/26 06:13:57;;;;;;;8.00;3.17;;;8.20;99.90;;;;;;5095642;28;20052;-72
2022/04/26 06:16:23;;;;;;;6.82;2.42;;;8.10;99.90;;;;;;5077250;28;20100;-71
2022/04/26 06:18:49;;;;;;;8.73;3.00;;;8.20;99.90;;;;;;5095834;28;20052;-71
2022/04/26 06:21:15;;;;;;;6.65;2.88;;;8.30;99.90;;;;;;5095550;28;20054;-71
2022/04/26 06:23:41;;;;;;;6.93;3.08;;;8.30;99.90;;;;;;5095464;28;20051;-71
2022/04/26 06:26:07;;;;;;;10.82;3.13;;;8.30;99.90;;;;;;5095424;28;20044;-72
2022/04/26 06:28:33;;;;;;;9.30;2.65;;;8.30;99.90;;;;;;5096007;28;20044;-71
2022/04/26 06:30:58;;;;;;;8.75;2.70;;;8.40;99.90;;;;;;5095398;28;20050;-71
2022/04/26 06:33:24;;;;;;;10.18;3.83;;;8.60;99.90;;;;;;5094955;28;20060;-71
2022/04/26 06:35:50;;;;;;;8.35;3.53;;;8.40;99.90;;;;;;5095203;28;20044;-71
2022/04/26 06:38:16;;;;;;;7.55;2.42;;;8.50;99.90;;;;;;5077207;28;20056;-70
2022/04/26 06:40:42;;;;;;;6.15;2.50;;;8.30;99.90;;;;;;5077280;28;20052;-70
2022/04/26 06:43:11;;;;;;;8.32;2.40;;;8.60;99.90;;;;;;5095333;28;20052;-70
2022/04/26 06:45:37;;;;;;;6.03;2.38;;;8.80;99.90;;;;;;5095238;28;20047;-71
2022/04/26 06:48:10;;;;;;;7.82;2.90;;;8.70;99.90;;;;;;5095778;28;20047;-70
2022/04/26 06:50:37;;;;;;;6.00;2.58;;;8.70;99.90;;;;;;5095544;28;20502;-72
2022/04/26 06:53:03;;;;;;;7.78;2.88;;;8.80;99.90;;;;;;5095189;28;20399;-71
2022/04/26 06:55:28;;;;;;;6.22;2.75;;;8.70;99.90;;;;;;5095595;28;20086;-72
2022/04/26 06:57:54;;;;;;;5.75;2.63;;;8.70;99.90;;;;;;5094775;28;20106;-71
2022/04/26 07:00:20;;;;;;;9.63;3.83;;;8.80;99.90;;;;;;5095392;28;20044;-71
2022/04/26 07:02:46;;;;;;;3.63;1.90;;;8.90;99.90;;;;;;5094867;28;20388;-71
2022/04/26 07:05:14;;;;;;;5.45;2.00;;;8.90;99.90;;;;;;5095094;28;20044;-71
2022/04/26 07:07:40;;;;;;;4.82;2.33;;;8.90;99.90;;;;;;5094992;28;20062;-72
2022/04/26 07:10:06;;;;;;;5.05;1.90;;;9.20;99.90;;;;;;5060465;28;20130;-70
2022/04/26 07:12:32;;;;;;;4.13;1.77;;;8.90;99.90;;;;;;5060249;28;20043;-71
2022/04/26 07:14:58;;;;;;;5.75;2.08;;;9.10;99.90;;;;;;5094517;28;20040;-70
2022/04/26 07:17:24;;;;;;;6.40;1.80;;;9.00;99.90;;;;;;5094282;28;20040;-71
2022/04/26 07:19:50;;;;;;;5.93;2.08;;;9.00;99.90;;;;;;5093611;28;20051;-71
2022/04/26 07:22:16;;;;;;;4.20;2.70;;;9.10;99.90;;;;;;5077012;28;20052;-71
2022/04/26 07:24:42;;;;;;;5.43;2.10;;;9.20;99.90;;;;;;5095419;28;20052;-72
2022/04/26 07:27:07;;;;;;;5.47;1.77;;;9.20;99.90;;;;;;5095103;28;20047;-72
2022/04/26 07:29:34;;;;;;;6.68;2.33;;;9.30;99.90;;;;;;5077157;28;20047;-72
2022/04/26 07:32:00;;;;;;;7.38;2.72;;;9.30;99.90;;;;;;5060715;28;20048;-72
2022/04/26 07:34:26;;;;;;;3.80;2.22;;;9.40;99.90;;;;;;5094536;28;20063;-72
2022/04/26 07:36:54;;;;;;;5.35;2.10;;;9.50;99.90;;;;;;5076285;28;20044;-72
2022/04/26 07:39:20;;;;;;;7.63;2.90;;;9.60;99.90;;;;;;5094219;28;20040;-72
2022/04/26 07:41:47;;;;;;;6.53;2.63;;;9.60;99.90;;;;;;5094283;28;20098;-73
2022/04/26 07:44:13;;;;;;;5.47;2.63;;;9.60;99.90;;;;;;5095096;28;20513;-72
2022/04/26 07:46:41;;;;;;;3.72;1.88;;;9.60;99.90;;;;;;5076500;28;20472;-71
2022/04/26 07:49:07;;;;;;;3.80;1.90;;;9.60;99.90;;;;;;5076114;28;20040;-72
2022/04/26 07:51:33;;;;;;;4.55;1.92;;;9.90;99.90;;;;;;5094401;28;20462;-73
2022/04/26 07:54:01;;;;;;;5.15;1.98;;;9.70;99.90;;;;;;5093698;28;20073;-72
2022/04/26 07:56:27;;;;;;;9.52;2.20;;;9.80;99.90;;;;;;5093946;28;20032;-72
2022/04/26 07:58:54;;;;;;;8.60;1.77;;;9.80;99.90;;;;;;5075709;28;20085;-73
2022/04/26 08:01:20;;;;;;;7.38;1.90;;;9.80;99.90;;;;;;5093963;28;20044;-73
2022/04/26 08:03:46;;;;;;;4.82;1.60;;;9.70;99.90;;;;;;5093981;28;20047;-73
2022/04/26 08:06:11;;;;;;;4.55;1.80;;;9.70;99.90;;;;;;5093805;28;20071;-70
2022/04/26 08:08:39;;;;;;;4.22;1.90;;;9.70;99.90;;;;;;5094250;28;20044;-72
2022/04/26 08:11:05;;;;;;;4.22;2.55;;;9.60;99.90;;;;;;5093898;28;20488;-71
2022/04/26 08:13:32;;;;;;;6.50;1.83;;;9.60;99.90;;;;;;5093566;28;20502;-73
2022/04/26 08:15:58;;;;;;;4.07;1.55;;;9.70;99.90;;;;;;5093738;28;20040;-73
2022/04/26 08:18:24;;;;;;;3.53;1.70;;;9.70;99.90;;;;;;5075779;28;20059;-74
2022/04/26 08:20:50;;;;;;;4.38;1.60;;;9.90;99.90;;;;;;5076897;28;20040;-73
2022/04/26 08:23:15;;;;;;;6.25;1.50;;;9.80;99.90;;;;;;5075539;28;20040;-73
2022/04/26 08:28:28;;;;;;;4.88;2.10;;;9.90;99.90;;;;;;5092788;28;20056;-71
2022/04/26 08:30:56;;;;;;;4.45;1.50;;;10.00;99.90;;;;;;5094233;28;20089;-74
2022/04/26 08:33:22;;;;;;;7.80;1.95;;;10.10;99.90;;;;;;5096657;28;20052;-74
2022/04/26 08:35:48;;;;;;;4.97;1.35;;;10.10;99.90;;;;;;5078528;28;20048;-73
2022/04/26 08:38:14;;;;;;;5.13;1.30;;;10.30;99.90;;;;;;5078246;28;20101;-73
2022/04/26 08:40:43;;;;;;;3.40;1.20;;;10.10;99.90;;;;;;5096240;28;20126;-72
2022/04/26 08:43:08;;;;;;;2.58;1.13;;;10.00;99.90;;;;;;5096772;28;20067;-72
2022/04/26 08:45:38;;;;;;;3.45;1.40;;;9.90;99.90;;;;;;5096415;28;20044;-73
2022/04/26 08:51:05;;;;;;;3.40;1.30;;;9.80;99.90;;;;;;5098081;28;20059;-71
2022/04/26 08:53:35;;;;;;;3.95;1.48;;;9.80;99.90;;;;;;5099075;28;20067;-76
2022/04/26 08:56:06;;;;;;;6.13;2.00;;;9.80;99.90;;;;;;5082200;28;20127;-71
2022/04/26 08:58:34;;;;;;;5.05;1.25;;;9.80;99.90;;;;;;5101612;28;20065;-71
2022/04/26 09:01:09;;;;;;;6.32;1.98;;;9.80;99.90;;;;;;5101037;28;20066;-71
2022/04/26 09:03:54;;;;;;;5.03;1.42;;;9.90;99.90;;;;;;5097967;28;20044;-71
2022/04/26 09:06:33;;;;;;;4.07;1.50;;;9.80;99.90;;;;;;5096476;28;20059;-71
2022/04/26 09:09:09;;;;;;;8.10;1.55;;;9.80;99.90;;;;;;5080600;28;20044;-71
2022/04/26 09:11:35;;;;;;;3.35;1.40;;;10.40;99.90;;;;;;5078437;28;20044;-70
2022/04/26 09:14:04;;;;;;;2.75;1.35;;;10.00;99.90;;;;;;5061384;28;20055;-71
2022/04/26 09:16:30;;;;;;;5.75;1.52;;;10.00;99.90;;;;;;5096194;28;20048;-70
2022/04/26 09:19:02;;;;;;;5.53;1.58;;;10.00;99.90;;;;;;5061814;28;20476;-71
2022/04/26 09:21:29;;;;;;;4.07;1.50;;;10.20;99.90;;;;;;5096619;28;20044;-71
2022/04/26 09:24:03;;;;;;;4.93;1.80;;;10.00;99.90;;;;;;5096302;28;20131;-71
2022/04/26 09:26:37;;;;;;;6.60;1.70;;;10.00;99.90;;;;;;5096492;28;20095;-71
2022/04/26 09:29:07;;;;;;;5.97;1.80;;;10.00;99.90;;;;;;5096538;28;20054;-70
2022/04/26 09:31:34;;;;;;;7.07;1.77;;;10.10;99.90;;;;;;5096438;28;20393;-71
2022/04/26 09:34:23;;;;;;;5.53;1.70;;;10.30;99.90;;;;;;5096438;28;20096;-71
2022/04/26 09:36:50;;;;;;;3.90;1.50;;;10.40;99.90;;;;;;5096150;28;20056;-72
2022/04/26 09:39:21;;;;;;;3.08;1.65;;;10.50;99.90;;;;;;5094647;28;20055;-71
2022/04/26 09:41:51;;;;;;;3.22;1.40;;;10.80;99.90;;;;;;5059787;28;20052;-71
2022/04/26 09:44:17;;;;;;;5.07;1.80;;;10.80;99.90;;;;;;5095837;28;20048;-71
2022/04/26 09:46:43;;;;;;;4.90;1.70;;;10.90;99.90;;;;;;5095621;28;20092;-71
2022/04/26 09:49:12;;;;;;;4.00;1.50;;;11.00;99.90;;;;;;5095992;28;20044;-70
2022/04/26 09:51:38;;;;;;;6.18;2.25;;;11.00;99.90;;;;;;5096163;28;20039;-72
2022/04/26 09:54:05;;;;;;;4.10;1.65;;;10.90;99.90;;;;;;5095428;28;20055;-72
2022/04/26 09:56:31;;;;;;;2.55;1.63;;;10.90;99.90;;;;;;5061015;28;20036;-71
2022/04/26 09:58:59;;;;;;;6.28;1.60;;;10.90;99.90;;;;;;5095478;28;20040;-72
2022/04/26 10:01:45;;;;;;;5.43;2.00;;;10.80;99.90;;;;;;5095463;28;20051;-73
2022/04/26 10:04:16;;;;;;;4.25;1.90;;;10.80;99.90;;;;;;5096193;28;20059;-71
2022/04/26 10:06:43;;;;;;;8.07;1.75;;;10.90;99.90;;;;;;5096469;28;20126;-72
2022/04/26 10:09:10;;;;;;;4.32;1.50;;;10.90;99.90;;;;;;5095988;28;20118;-71
2022/04/26 10:11:37;;;;;;;3.70;1.45;;;11.10;99.90;;;;;;5095602;28;20036;-71
2022/04/26 10:14:08;;;;;;;7.13;2.15;;;11.20;99.90;;;;;;5095507;28;20083;-72
2022/04/26 10:16:35;;;;;;;5.72;2.53;;;11.20;99.90;;;;;;5095065;28;20036;-72
2022/04/26 10:19:08;;;;;;;8.23;5.30;;;11.30;99.90;;;;;;5094880;28;20048;-72
2022/04/26 10:21:39;;;;;;;6.45;2.00;;;11.30;99.90;;;;;;5094796;28;20055;-72
2022/04/26 10:24:06;;;;;;;5.40;1.95;;;11.40;99.90;;;;;;5095317;28;20134;-72
2022/04/26 10:26:35;;;;;;;3.88;2.40;;;11.30;99.90;;;;;;5094677;28;20055;-70
2022/04/26 10:29:06;;;;;;;5.72;2.50;;;11.30;99.90;;;;;;5076784;28;20055;-70
2022/04/26 10:31:39;;;;;;;6.07;1.33;;;11.20;99.90;;;;;;5095807;28;20117;-70
2022/04/26 10:34:39;;;;;;;3.13;1.42;;;11.10;99.90;;;;;;5076551;28;20064;-72
2022/04/26 10:37:11;;;;;;;5.43;1.30;;;11.40;99.90;;;;;;5094293;28;20127;-72
2022/04/26 10:39:41;;;;;;;3.90;1.17;;;11.30;99.90;;;;;;5095067;28;20047;-71
2022/04/26 10:42:16;;;;;;;2.90;1.50;;;11.20;99.90;;;;;;5075995;28;20128;-72
2022/04/26 10:44:46;;;;;;;5.93;1.50;;;11.30;99.90;;;;;;5094339;28;20052;-72
2022/04/26 10:47:18;;;;;;;4.22;1.52;;;11.30;99.90;;;;;;5095194;28;20036;-71
2022/04/26 10:49:45;;;;;;;3.42;1.20;;;11.30;99.90;;;;;;5094743;28;20070;-73
2022/04/26 10:52:13;;;;;;;4.32;1.52;;;11.40;99.90;;;;;;5076804;28;20108;-72
2022/04/26 10:55:03;;;;;;;5.72;1.40;;;11.50;99.90;;;;;;5094867;28;20139;-72
2022/04/26 10:57:35;;;;;;;7.60;1.80;;;11.50;99.90;;;;;;5094341;28;20090;-72
2022/04/26 11:00:23;;;;;;;3.60;1.80;;;11.50;99.90;;;;;;5094176;28;20044;-72
2022/04/26 11:02:50;;;;;;;3.22;1.33;;;11.50;99.90;;;;;;5077003;28;20048;-74
2022/04/26 11:05:18;;;;;;;3.35;1.50;;;11.50;99.90;;;;;;5076272;28;20097;-71
2022/04/26 11:07:46;;;;;;;4.35;1.50;;;11.50;99.90;;;;;;5094731;28;20147;-72
2022/04/26 11:10:15;;;;;;;3.58;1.33;;;11.50;99.90;;;;;;5075987;28;20048;-72
2022/04/26 11:12:41;;;;;;;3.85;1.23;;;11.60;99.90;;;;;;5093772;28;20533;-73
2022/04/26 11:15:25;;;;;;;2.75;1.63;;;11.70;99.90;;;;;;5094389;28;20055;-71
2022/04/26 11:17:52;;;;;;;3.92;1.40;;;11.70;99.90;;;;;;5094554;28;20121;-74
2022/04/26 11:20:18;;;;;;;3.88;1.20;;;11.80;99.90;;;;;;5093564;28;20457;-73
2022/04/26 11:22:48;;;;;;;4.40;1.20;;;11.90;99.90;;;;;;5093748;28;20054;-73
2022/04/26 11:28:08;;;;;;;3.17;1.38;;;12.00;99.90;;;;;;5093922;28;20056;-73
2022/04/26 11:30:37;;;;;;;3.88;1.42;;;12.00;99.90;;;;;;5094001;28;20081;-73
2022/04/26 11:33:22;;;;;;;4.05;1.20;;;12.00;99.90;;;;;;5093299;28;20135;-73
2022/04/26 11:35:58;;;;;;;7.70;4.25;;;12.00;99.90;;;;;;5075822;28;20052;-73
2022/04/26 11:38:27;;;;;;;4.25;1.63;;;12.00;99.90;;;;;;5076066;28;20052;-72
2022/04/26 11:40:54;;;;;;;2.83;1.30;;;12.00;99.90;;;;;;5094166;28;20048;-73
2022/04/26 11:43:23;;;;;;;3.08;1.30;;;12.00;99.90;;;;;;5075466;28;20077;-72
2022/04/26 11:45:51;;;;;;;5.68;1.70;;;12.00;99.90;;;;;;5092991;28;20047;-73
2022/04/26 11:48:19;;;;;;;5.40;2.35;;;12.00;99.30;;;;;;5093435;28;20043;-72
2022/04/26 11:50:47;;;;;;;3.05;1.05;;;12.00;99.20;;;;;;5075575;28;20044;-71
2022/04/26 11:53:18;;;;;;;4.35;1.45;;;12.00;98.50;;;;;;5093584;28;20071;-73
2022/04/26 11:55:52;;;;;;;3.10;0.93;;;12.10;98.50;;;;;;5094015;28;20044;-71
2022/04/26 11:58:22;;;;;;;3.17;1.38;;;12.10;97.60;;;;;;5074997;28;20056;-71
2022/04/26 12:01:02;;;;;;;3.22;1.02;;;12.10;97.10;;;;;;5093324;28;20047;-71
2022/04/26 12:03:29;;;;;;;1.52;1.20;;;12.10;97.20;;;;;;5092582;28;20044;-71
2022/04/26 12:06:01;;;;;;;2.90;1.13;;;12.10;97.20;;;;;;5091985;28;20461;-71
2022/04/26 12:08:29;;;;;;;2.33;1.10;;;12.10;96.70;;;;;;5093399;28;20104;-72
2022/04/26 12:11:21;;;;;;;5.82;1.30;;;12.20;96.20;;;;;;5092872;28;20044;-71
2022/04/26 12:13:59;;;;;;;2.88;1.40;;;12.20;96.00;;;;;;5094539;28;20040;-72
2022/04/26 12:16:25;;;;;;;3.67;1.50;;;12.20;96.10;;;;;;5094200;28;20040;-71
2022/04/26 12:18:54;;;;;;;2.50;1.20;;;12.20;96.20;;;;;;5093739;28;20055;-72
2022/04/26 12:21:20;;;;;;;4.07;1.85;;;12.30;95.60;;;;;;5093776;28;20052;-73
2022/04/26 12:23:46;;;;;;;4.25;1.20;;;12.30;95.30;;;;;;5094259;28;20105;-72
2022/04/26 12:26:13;;;;;;;2.20;1.25;;;12.40;95.20;;;;;;5075508;28;20052;-71
2022/04/26 12:28:49;;;;;;;3.88;1.10;;;12.40;95.70;;;;;;5093668;28;20123;-72
2022/04/26 12:31:21;;;;;;;5.40;1.30;;;12.50;95.90;;;;;;5094531;28;20044;-71
2022/04/26 12:34:12;;;;;;;3.90;1.33;;;12.50;95.90;;;;;;5093541;28;20056;-72
2022/04/26 12:36:54;;;;;;;3.65;1.60;;;12.60;94.80;;;;;;5093476;28;20562;-72
2022/04/26 12:39:25;;;;;;;2.95;1.30;;;12.60;95.40;;;;;;5093241;28;20514;-72
2022/04/26 12:41:53;;;;;;;4.38;1.42;;;12.80;95.40;;;;;;5094089;28;20048;-71
2022/04/26 12:44:19;;;;;;;4.22;1.80;;;12.60;95.60;;;;;;5093490;28;20058;-72
2022/04/26 12:52:37;;;;;;;3.83;1.45;;;12.60;96.40;;;;;;5093415;28;20063;-72
2022/04/26 12:55:03;;;;;;;3.92;1.40;;;12.70;96.60;;;;;;5093455;28;20044;-71
2022/04/26 12:57:29;;;;;;;4.38;1.67;;;12.80;96.50;;;;;;5075257;28;20396;-70
2022/04/26 12:59:55;;;;;;;3.17;1.80;;;12.80;96.70;;;;;;5093325;28;20048;-71
2022/04/26 13:02:20;;;;;;;4.53;1.80;;;12.90;96.10;;;;;;5075236;28;20043;-72
2022/04/26 13:04:46;;;;;;;4.10;1.45;;;12.80;96.10;;;;;;5093051;28;20040;-72
2022/04/26 13:07:13;;;;;;;2.95;1.75;;;12.90;96.30;;;;;;5058976;28;20049;-72
2022/04/26 13:09:39;;;;;;;3.08;1.40;;;12.90;96.30;;;;;;5093294;28;20044;-71
2022/04/26 13:12:05;;;;;;;3.63;1.75;;;12.90;96.50;;;;;;5093202;28;20127;-72
2022/04/26 13:14:31;;;;;;;5.88;2.13;;;12.90;96.60;;;;;;5075105;28;20044;-72
2022/04/26 13:16:57;;;;;;;4.43;1.73;;;13.00;96.70;;;;;;5060264;28;20040;-71
2022/04/26 13:19:23;;;;;;;5.10;2.00;;;13.00;97.20;;;;;;5078891;28;20102;-72
2022/04/26 13:21:49;;;;;;;3.97;1.70;;;13.10;96.80;;;;;;5079265;28;20055;-72
2022/04/26 13:24:15;;;;;;;4.93;1.73;;;13.00;96.60;;;;;;5096800;28;20055;-72
2022/04/26 13:26:41;;;;;;;4.40;1.83;;;13.00;96.50;;;;;;5096411;28;20546;-72
2022/04/26 13:29:06;;;;;;;4.45;1.90;;;13.00;96.60;;;;;;5096744;28;20159;-72
2022/04/26 13:31:32;;;;;;;4.75;1.65;;;13.00;96.70;;;;;;5096672;28;20048;-71
2022/04/26 13:33:58;;;;;;;3.55;1.60;;;13.00;96.60;;;;;;5096353;28;20553;-72
2022/04/26 13:36:27;;;;;;;3.22;1.70;;;12.90;96.80;;;;;;5078511;28;20621;-73
2022/04/26 13:38:53;;;;;;;5.97;2.17;;;13.00;96.70;;;;;;5096572;28;20617;-72
2022/04/26 13:41:18;;;;;;;2.90;1.40;;;13.00;96.00;;;;;;5078623;28;20147;-72
2022/04/26 13:43:45;;;;;;;3.33;1.58;;;13.00;95.90;;;;;;5096424;28;20044;-72
2022/04/26 13:46:11;;;;;;;4.80;1.83;;;13.00;95.70;;;;;;5096057;28;20526;-72
2022/04/26 13:48:37;;;;;;;4.25;1.70;;;12.90;95.70;;;;;;5096838;28;20040;-73
2022/04/26 13:51:03;;;;;;;4.20;1.50;;;12.90;95.60;;;;;;5096275;28;20040;-74
2022/04/26 13:53:30;;;;;;;5.13;1.60;;;12.90;95.80;;;;;;5078224;28;20501;-73
2022/04/26 13:55:56;;;;;;;4.38;1.33;;;13.00;95.90;;;;;;5096088;28;20047;-72
2022/04/26 13:58:22;;;;;;;3.95;1.58;;;13.00;96.00;;;;;;5096173;28;20130;-73
2022/04/26 14:00:47;;;;;;;6.82;1.77;;;13.00;95.90;;;;;;5078052;28;20051;-72
2022/04/26 14:03:13;;;;;;;4.55;1.60;;;13.10;95.80;;;;;;5095986;28;20389;-72
2022/04/26 14:05:39;;;;;;;5.20;1.52;;;13.10;95.10;;;;;;5078156;28;20059;-72
2022/04/26 14:08:05;;;;;;;4.88;1.55;;;13.20;94.70;;;;;;5095866;28;20048;-73
2022/04/26 14:10:31;;;;;;;3.03;1.60;;;13.30;94.60;;;;;;5078056;28;20096;-73
2022/04/26 14:12:58;;;;;;;3.80;1.60;;;13.30;94.40;;;;;;5095915;28;20357;-73
2022/04/26 14:23:36;;;;;;;2.65;1.20;;;13.00;94.40;;;;;;5095718;28;20048;-73
2022/04/26 14:26:03;;;;;;;3.00;1.33;;;12.90;94.40;;;;;;5077549;28;20046;-73
2022/04/26 14:28:29;;;;;;;5.00;1.75;;;12.90;94.60;;;;;;5094847;28;20472;-73
2022/04/26 14:30:55;;;;;;;2.15;1.27;;;12.80;94.40;;;;;;5077563;28;20055;-74
2022/04/26 14:33:20;;;;;;;4.95;1.50;;;12.70;94.60;;;;;;5095316;28;20056;-73
2022/04/26 14:35:46;;;;;;;3.42;1.50;;;12.70;94.70;;;;;;5077447;28;20172;-73
2022/04/26 14:38:12;;;;;;;6.07;1.40;;;12.60;94.80;;;;;;5095321;28;20079;-72
2022/04/26 14:40:38;;;;;;;5.38;1.65;;;12.60;94.70;;;;;;5078056;28;20067;-74
2022/04/26 14:43:09;;;;;;;4.47;1.40;;;12.50;95.20;;;;;;5095633;28;20105;-72
2022/04/26 14:45:44;;;;;;;3.22;1.27;;;12.50;95.70;;;;;;5095114;28;20127;-71
2022/04/26 14:48:10;;;;;;;2.97;1.50;;;12.60;95.50;;;;;;5062216;28;20369;-72
2022/04/26 14:50:38;;;;;;;2.90;1.27;;;12.50;95.20;;;;;;5095414;28;20047;-72
2022/04/26 14:53:03;;;;;;;4.18;1.70;;;12.50;95.50;;;;;;5095053;28;20458;-72
2022/04/26 14:55:29;;;;;;;3.95;1.40;;;12.40;95.30;;;;;;5077189;28;20054;-71
2022/04/26 14:57:55;;;;;;;3.58;1.77;;;12.40;95.50;;;;;;5094875;28;20055;-76
2022/04/26 15:00:20;;;;;;;4.30;1.73;;;12.30;95.80;;;;;;5094699;28;20097;-74
2022/04/26 15:02:46;;;;;;;4.32;1.95;;;12.30;95.70;;;;;;5077343;28;20127;-74
2022/04/26 15:05:13;;;;;;;4.20;1.92;;;12.30;95.40;;;;;;5094838;28;20048;-73
2022/04/26 15:10:25;;;;;;;2.40;1.35;;;12.40;95.70;;;;;;5094787;28;20092;-73
2022/04/26 15:18:21;;;;;;;3.78;1.58;;;12.70;95.30;;;;;;5094727;28;20059;-74
2022/04/26 15:20:51;;;;;;;4.30;1.40;;;12.70;95.40;;;;;;5059933;28;20047;-73
2022/04/26 15:23:20;;;;;;;3.05;1.52;;;12.80;95.00;;;;;;5093932;28;20055;-72
2022/04/26 15:25:55;;;;;;;2.22;1.27;;;12.90;94.10;;;;;;5093961;28;20044;-72
2022/04/26 15:28:22;;;;;;;3.55;1.30;;;12.90;93.30;;;;;;5076436;28;20055;-73
2022/04/26 15:30:49;;;;;;;4.97;1.55;;;12.90;93.30;;;;;;5093921;28;20056;-73
2022/04/26 15:33:19;;;;;;;4.97;2.00;;;12.90;93.30;;;;;;5093554;28;20064;-73
2022/04/26 15:35:45;;;;;;;4.15;1.90;;;13.00;93.80;;;;;;5093638;28;20052;-74
2022/04/26 15:38:12;;;;;;;3.63;1.88;;;13.00;94.10;;;;;;5075684;28;20074;-74
2022/04/26 15:40:42;;;;;;;4.43;1.85;;;13.10;93.60;;;;;;5093677;28;20052;-72
2022/04/26 15:43:09;;;;;;;3.85;1.45;;;13.10;93.40;;;;;;5059424;28;20143;-74
2022/04/26 15:45:36;;;;;;;3.33;1.52;;;13.10;93.00;;;;;;5093705;28;20400;-72
2022/04/26 15:48:02;;;;;;;2.47;1.10;;;13.00;93.00;;;;;;5094339;28;20091;-75
2022/04/26 15:50:28;;;;;;;5.38;1.25;;;12.90;93.00;;;;;;5059782;28;20056;-74
2022/04/26 15:52:55;;;;;;;2.67;1.13;;;12.90;92.80;;;;;;5093555;28;20048;-74
2022/04/26 15:55:22;;;;;;;9.63;1.73;;;12.90;92.80;;;;;;5093595;28;20083;-75
2022/04/26 15:57:52;;;;;;;4.18;1.40;;;12.90;92.70;;;;;;5076160;28;20048;-74
2022/04/26 16:00:20;;;;;;;4.40;1.55;;;12.80;92.80;;;;;;5093096;28;20491;-74
2022/04/26 16:02:46;;;;;;;4.88;1.52;;;12.80;92.90;;;;;;5093401;28;20093;-74
2022/04/26 16:05:12;;;;;;;2.13;1.35;;;12.70;92.90;;;;;;5076344;28;20048;-73
2022/04/26 16:07:39;;;;;;;4.65;1.40;;;12.60;92.80;;;;;;5076307;28;20044;-74
2022/04/26 16:21:05;;;;;;;3.45;1.30;;;12.40;92.80;;;;;;5092786;28;20047;-71
2022/04/26 16:23:30;;;;;;;3.92;1.20;;;12.40;93.00;;;;;;5057531;28;20203;-73
2022/04/26 16:26:02;;;;;;;3.42;1.20;;;12.50;92.90;;;;;;5092360;28;20495;-72
2022/04/26 16:28:33;;;;;;;3.83;1.25;;;12.50;92.70;;;;;;5092969;28;20086;-72
2022/04/26 16:30:58;;;;;;;3.05;1.40;;;12.40;93.00;;;;;;5076072;28;20147;-72
2022/04/26 16:33:24;;;;;;;2.83;1.23;;;12.50;93.00;;;;;;5093087;28;20135;-71
2022/04/26 16:35:51;;;;;;;3.17;1.40;;;12.50;92.80;;;;;;5075242;28;20369;-73
2022/04/26 16:38:17;;;;;;;4.13;1.92;;;12.60;92.90;;;;;;5093346;28;20051;-74
2022/04/26 16:40:50;;;;;;;3.30;1.30;;;12.60;92.00;;;;;;5093084;28;20051;-73
2022/04/26 16:43:17;;;;;;;4.43;1.38;;;12.70;92.00;;;;;;5075076;28;20044;-74
2022/04/26 16:45:43;;;;;;;3.58;1.20;;;12.60;91.50;;;;;;5093091;28;20055;-73
2022/04/26 16:48:09;;;;;;;3.65;1.20;;;12.60;91.10;;;;;;5075588;28;20066;-74
2022/04/26 16:50:35;;;;;;;3.10;1.05;;;12.60;90.90;;;;;;5093188;28;20044;-73
2022/04/26 16:53:01;;;;;;;4.32;1.20;;;12.70;90.50;;;;;;5078493;28;20451;-73
2022/04/26 16:55:27;;;;;;;2.67;1.17;;;12.50;90.20;;;;;;5096891;28;20044;-73
2022/04/26 16:57:53;;;;;;;2.25;1.30;;;12.50;90.00;;;;;;5096788;28;20486;-73
2022/04/26 17:00:19;;;;;;;2.53;1.23;;;12.50;90.00;;;;;;5096708;28;20093;-72
2022/04/26 17:02:46;;;;;;;3.35;1.30;;;12.40;89.30;;;;;;5079089;28;20069;-74
2022/04/26 17:05:12;;;;;;;2.85;1.00;;;12.30;90.00;;;;;;5062180;28;20052;-74
2022/04/26 17:07:39;;;;;;;1.67;1.02;;;12.20;90.20;;;;;;5078524;28;20115;-74
2022/04/26 17:10:06;;;;;;;2.20;1.17;;;11.50;89.90;;;;;;5096608;28;20090;-73
2022/04/26 17:12:33;;;;;;;3.15;1.30;;;12.10;90.20;;;;;;5096521;28;20123;-73
2022/04/26 17:15:00;;;;;;;2.97;1.27;;;12.20;90.90;;;;;;5078870;28;20094;-73